createdAt,value
2018-07-07T00:00:43.053Z,56.35
2018-07-07T00:02:47.986Z,56.42
2018-07-07T00:04:53.005Z,57.28
2018-07-07T00:06:58.559Z,56.81
2018-07-07T00:09:03.724Z,57.05
2018-07-07T00:11:08.747Z,57.00
2018-07-07T00:13:14.043Z,57.26
2018-07-07T00:15:20.410Z,57.92
2018-07-07T00:17:25.492Z,58.27
2018-07-07T00:19:30.313Z,57.72
2018-07-07T00:21:35.265Z,58.44
2018-07-07T00:23:40.185Z,58.62
2018-07-07T00:25:44.996Z,59.09
2018-07-07T00:27:50.596Z,58.96
2018-07-07T00:29:55.578Z,59.03
2018-07-07T00:32:00.642Z,59.15
2018-07-07T00:34:05.629Z,58.59
2018-07-07T00:36:10.625Z,58.44
2018-07-07T00:38:15.716Z,58.71
2018-07-07T00:40:20.574Z,58.86
2018-07-07T00:42:25.572Z,58.30
2018-07-07T00:44:30.981Z,57.87
2018-07-07T00:46:36.227Z,58.03
2018-07-07T00:48:41.413Z,58.36
2018-07-07T00:50:46.354Z,58.18
2018-07-07T00:52:51.287Z,57.77
2018-07-07T00:54:56.594Z,57.85
2018-07-07T00:57:01.525Z,57.99
2018-07-07T00:59:06.338Z,57.85
2018-07-07T01:01:11.494Z,57.48
2018-07-07T01:03:16.549Z,57.43
2018-07-07T01:05:35.801Z,56.78
2018-07-07T01:07:40.801Z,56.72
2018-07-07T01:09:45.728Z,57.80
2018-07-07T01:11:50.784Z,57.76
2018-07-07T01:13:58.724Z,57.04
2018-07-07T01:16:03.766Z,56.02
2018-07-07T01:18:09.126Z,56.38
2018-07-07T01:20:14.135Z,56.83
2018-07-07T01:22:19.064Z,56.25
2018-07-07T01:24:24.022Z,56.94
2018-07-07T01:26:29.151Z,56.59
2018-07-07T01:28:33.877Z,56.49
2018-07-07T01:30:38.992Z,56.51
2018-07-07T01:32:44.032Z,56.48
2018-07-07T01:34:49.165Z,56.08
2018-07-07T01:36:54.281Z,56.51
2018-07-07T01:38:59.076Z,56.12
2018-07-07T01:41:04.000Z,56.05
2018-07-07T01:43:08.651Z,55.39
2018-07-07T01:45:13.406Z,54.88
2018-07-07T01:47:18.146Z,54.22
2018-07-07T01:49:23.020Z,53.70
2018-07-07T01:51:27.982Z,53.77
2018-07-07T01:53:32.885Z,53.39
2018-07-07T01:55:37.994Z,53.91
2018-07-07T01:57:42.849Z,52.42
2018-07-07T01:59:47.627Z,52.23
2018-07-07T02:01:52.673Z,51.85
2018-07-07T02:03:57.633Z,51.17
2018-07-07T02:06:02.570Z,50.29
2018-07-07T02:08:07.886Z,49.70
2018-07-07T02:10:12.916Z,50.29
2018-07-07T02:12:17.861Z,49.08
2018-07-07T02:14:22.670Z,49.43
2018-07-07T02:16:27.632Z,49.53
2018-07-07T02:18:32.552Z,48.38
2018-07-07T02:20:37.852Z,48.47
2018-07-07T02:22:43.070Z,48.78
2018-07-07T02:24:48.183Z,49.63
2018-07-07T02:26:53.195Z,49.17
2018-07-07T02:28:58.191Z,49.72
2018-07-07T02:31:02.993Z,49.13
2018-07-07T02:33:07.977Z,49.56
2018-07-07T02:35:12.958Z,49.69
2018-07-07T02:37:17.801Z,48.83
2018-07-07T02:39:22.838Z,49.49
2018-07-07T02:41:27.726Z,47.92
2018-07-07T02:43:32.635Z,48.34
2018-07-07T02:45:37.689Z,48.58
2018-07-07T02:47:42.466Z,49.20
2018-07-07T02:49:47.347Z,48.70
2018-07-07T02:51:52.197Z,49.24
2018-07-07T02:53:57.451Z,49.46
2018-07-07T02:56:02.169Z,48.61
2018-07-07T02:58:06.972Z,49.68
2018-07-07T03:00:11.877Z,49.59
2018-07-07T03:02:16.678Z,49.49
2018-07-07T03:04:21.500Z,50.34
2018-07-07T03:06:26.347Z,50.49
2018-07-07T03:08:31.138Z,50.70
2018-07-07T03:10:35.925Z,50.50
2018-07-07T03:12:40.681Z,49.69
2018-07-07T03:14:45.650Z,50.38
2018-07-07T03:16:50.578Z,50.23
2018-07-07T03:18:55.728Z,50.23
2018-07-07T03:21:00.796Z,50.56
2018-07-07T03:23:05.825Z,49.21
2018-07-07T03:25:11.023Z,49.58
2018-07-07T03:27:15.831Z,49.38
2018-07-07T03:29:20.679Z,50.50
2018-07-07T03:31:25.469Z,50.76
2018-07-07T03:33:30.222Z,50.29
2018-07-07T03:35:35.296Z,50.40
2018-07-07T03:37:40.206Z,50.50
2018-07-07T03:39:45.007Z,50.49
2018-07-07T03:41:49.864Z,50.17
2018-07-07T03:43:54.760Z,50.40
2018-07-07T03:45:59.554Z,50.48
2018-07-07T03:48:04.439Z,50.09
2018-07-07T03:50:09.300Z,50.24
2018-07-07T03:52:14.383Z,50.71
2018-07-07T03:54:19.307Z,50.74
2018-07-07T03:56:24.331Z,51.09
2018-07-07T03:58:29.272Z,51.43
2018-07-07T04:00:34.042Z,51.50
2018-07-07T04:02:38.941Z,50.70
2018-07-07T04:04:43.858Z,51.30
2018-07-07T04:06:48.760Z,51.32
2018-07-07T04:08:53.505Z,50.69
2018-07-07T04:10:58.515Z,51.15
2018-07-07T04:13:03.281Z,51.17
2018-07-07T04:15:08.176Z,50.67
2018-07-07T04:17:12.922Z,50.18
2018-07-07T04:19:17.767Z,50.32
2018-07-07T04:21:22.557Z,49.64
2018-07-07T04:23:27.325Z,50.72
2018-07-07T04:25:32.227Z,50.82
2018-07-07T04:27:37.140Z,50.89
2018-07-07T04:29:41.837Z,51.19
2018-07-07T04:31:46.723Z,50.89
2018-07-07T04:33:51.478Z,51.68
2018-07-07T04:35:56.412Z,50.97
2018-07-07T04:38:01.129Z,51.31
2018-07-07T04:40:05.916Z,51.34
2018-07-07T04:42:12.512Z,51.22
2018-07-07T04:44:17.399Z,50.99
2018-07-07T04:46:22.230Z,51.20
2018-07-07T04:48:27.017Z,50.42
2018-07-07T04:50:31.821Z,50.56
2018-07-07T04:52:36.742Z,50.95
2018-07-07T04:54:41.642Z,50.76
2018-07-07T04:56:46.447Z,50.04
2018-07-07T04:58:51.246Z,50.13
2018-07-07T05:00:56.513Z,50.58
2018-07-07T05:03:01.813Z,50.91
2018-07-07T05:05:06.839Z,52.07
2018-07-07T05:07:11.801Z,51.85
2018-07-07T05:09:16.651Z,52.04
2018-07-07T05:11:21.553Z,52.33
2018-07-07T05:13:26.460Z,51.88
2018-07-07T05:15:31.282Z,51.95
2018-07-07T05:17:36.214Z,51.47
2018-07-07T05:19:41.117Z,51.06
2018-07-07T05:21:45.939Z,51.07
2018-07-07T05:23:50.899Z,51.39
2018-07-07T05:25:56.848Z,50.60
2018-07-07T05:28:03.126Z,50.50
2018-07-07T05:30:10.292Z,49.96
2018-07-07T05:32:15.100Z,49.93
2018-07-07T05:34:19.936Z,49.93
2018-07-07T05:36:24.814Z,50.27
2018-07-07T05:38:29.555Z,49.25
2018-07-07T05:40:35.073Z,48.73
2018-07-07T05:42:40.056Z,49.13
2018-07-07T05:44:45.056Z,49.32
2018-07-07T05:46:49.954Z,49.29
2018-07-07T05:48:55.537Z,49.52
2018-07-07T05:51:00.493Z,50.53
2018-07-07T05:53:05.413Z,50.30
2018-07-07T05:55:10.519Z,50.25
2018-07-07T05:57:15.471Z,49.25
2018-07-07T05:59:20.317Z,49.01
2018-07-07T06:01:25.414Z,49.66
2018-07-07T06:03:30.568Z,49.22
2018-07-07T06:05:36.294Z,49.82
2018-07-07T06:07:41.268Z,49.64
2018-07-07T06:09:47.278Z,49.18
2018-07-07T06:11:53.649Z,48.82
2018-07-07T06:13:58.820Z,49.10
2018-07-07T06:16:03.788Z,49.06
2018-07-07T06:18:08.453Z,48.97
2018-07-07T06:20:13.787Z,48.75
2018-07-07T06:22:19.023Z,49.07
2018-07-07T06:24:24.166Z,48.10
2018-07-07T06:26:29.210Z,48.59
2018-07-07T06:28:34.110Z,48.12
2018-07-07T06:30:39.144Z,48.10
2018-07-07T06:32:44.123Z,48.01
2018-07-07T06:34:49.387Z,47.66
2018-07-07T06:36:55.559Z,46.18
2018-07-07T06:39:00.899Z,47.09
2018-07-07T06:41:06.059Z,46.80
2018-07-07T06:43:11.161Z,47.08
2018-07-07T06:45:16.258Z,46.76
2018-07-07T06:47:21.512Z,47.09
2018-07-07T06:49:27.187Z,45.71
2018-07-07T06:51:55.695Z,45.53
2018-07-07T06:54:01.142Z,45.54
2018-07-07T06:56:06.359Z,45.26
2018-07-07T06:58:11.564Z,43.62
2018-07-07T07:00:16.667Z,43.99
2018-07-07T07:02:21.662Z,44.88
2018-07-07T07:04:26.669Z,45.33
2018-07-07T07:06:31.889Z,44.66
2018-07-07T07:08:36.613Z,44.29
2018-07-07T07:10:41.477Z,44.40
2018-07-07T07:12:46.546Z,44.30
2018-07-07T07:14:52.480Z,43.58
2018-07-07T07:16:58.314Z,42.99
2018-07-07T07:19:03.481Z,43.84
2018-07-07T07:21:08.599Z,43.09
2018-07-07T07:23:13.689Z,42.78
2018-07-07T07:25:18.634Z,42.50
2018-07-07T07:27:30.057Z,42.80
2018-07-07T07:29:35.299Z,42.52
2018-07-07T07:31:40.768Z,42.33
2018-07-07T07:33:47.176Z,41.18
2018-07-07T07:35:52.757Z,40.62
2018-07-07T07:37:58.418Z,39.75
2018-07-07T07:40:03.636Z,39.88
2018-07-07T07:42:08.771Z,40.76
2018-07-07T07:44:13.559Z,39.27
2018-07-07T07:46:18.980Z,40.04
2018-07-07T07:48:24.083Z,40.46
2018-07-07T07:50:29.225Z,39.73
2018-07-07T07:52:34.022Z,40.50
2018-07-07T07:54:39.159Z,40.81
2018-07-07T07:56:45.200Z,40.35
2018-07-07T07:58:50.103Z,40.76
2018-07-07T08:00:55.998Z,39.75
2018-07-07T08:03:08.659Z,37.53
2018-07-07T08:05:13.748Z,38.91
2018-07-07T08:07:19.216Z,39.01
2018-07-07T08:09:24.691Z,37.09
2018-07-07T08:11:30.878Z,37.33
2018-07-07T08:13:35.975Z,37.62
2018-07-07T08:15:40.971Z,37.12
2018-07-07T08:17:45.821Z,37.62
2018-07-07T08:19:52.416Z,37.73
2018-07-07T08:21:57.361Z,37.63
2018-07-07T08:24:02.274Z,37.26
2018-07-07T08:26:07.248Z,37.91
2018-07-07T08:28:12.362Z,38.52
2018-07-07T08:30:17.355Z,37.79
2018-07-07T08:32:22.789Z,37.21
2018-07-07T08:34:28.323Z,37.72
2018-07-07T08:36:33.312Z,37.94
2018-07-07T08:38:39.022Z,37.15
2018-07-07T08:40:44.027Z,36.39
2018-07-07T08:42:49.206Z,37.29
2018-07-07T08:44:54.306Z,36.89
2018-07-07T08:46:59.342Z,36.67
2018-07-07T08:49:04.262Z,36.35
2018-07-07T08:51:09.445Z,36.20
2018-07-07T08:53:15.474Z,36.44
2018-07-07T08:55:24.005Z,37.14
2018-07-07T08:57:29.092Z,36.38
2018-07-07T08:59:34.245Z,37.41
2018-07-07T09:01:39.593Z,37.94
2018-07-07T09:03:44.708Z,37.12
2018-07-07T09:05:53.270Z,36.18
2018-07-07T09:07:59.939Z,36.57
2018-07-07T09:10:05.907Z,37.46
2018-07-07T09:12:13.111Z,36.72
2018-07-07T09:14:20.896Z,36.47
2018-07-07T09:16:26.573Z,36.89
2018-07-07T09:18:32.312Z,36.14
2018-07-07T09:20:41.177Z,36.35
2018-07-07T09:22:46.584Z,35.55
2018-07-07T09:24:51.703Z,35.97
2018-07-07T09:26:57.089Z,35.30
2018-07-07T09:29:02.327Z,35.75
2018-07-07T09:31:08.642Z,35.06
2018-07-07T09:33:14.783Z,35.40
2018-07-07T09:35:20.461Z,35.54
2018-07-07T09:37:26.834Z,35.42
2018-07-07T09:39:32.131Z,35.43
2018-07-07T09:41:37.457Z,35.17
2018-07-07T09:43:42.344Z,34.23
2018-07-07T09:45:48.980Z,34.62
2018-07-07T09:47:54.157Z,35.83
2018-07-07T09:49:59.141Z,35.00
2018-07-07T09:52:05.447Z,34.57
2018-07-07T09:54:11.042Z,35.45
2018-07-07T09:56:16.744Z,34.17
2018-07-07T09:58:21.715Z,34.06
2018-07-07T10:00:31.692Z,34.12
2018-07-07T10:02:36.791Z,34.80
2018-07-07T10:04:42.101Z,34.28
2018-07-07T10:06:47.567Z,34.16
2018-07-07T10:08:52.795Z,34.69
2018-07-07T10:11:15.754Z,33.95
2018-07-07T10:13:20.564Z,33.56
2018-07-07T10:15:26.517Z,34.33
2018-07-07T10:17:35.913Z,34.25
2018-07-07T10:19:40.851Z,34.79
2018-07-07T10:21:46.019Z,34.24
2018-07-07T10:23:50.915Z,34.53
2018-07-07T10:25:56.750Z,34.15
2018-07-07T10:28:01.660Z,33.55
2018-07-07T10:30:06.565Z,33.56
2018-07-07T10:32:11.635Z,33.59
2018-07-07T10:34:16.430Z,33.64
2018-07-07T10:36:21.433Z,32.83
2018-07-07T10:38:27.443Z,33.43
2018-07-07T10:40:32.446Z,33.71
2018-07-07T10:42:37.491Z,33.45
2018-07-07T10:44:42.742Z,33.60
2018-07-07T10:46:47.714Z,33.90
2018-07-07T10:48:52.679Z,33.25
2018-07-07T10:50:57.533Z,33.54
2018-07-07T10:53:02.436Z,33.41
2018-07-07T10:55:07.457Z,34.27
2018-07-07T10:57:12.500Z,33.24
2018-07-07T10:59:17.272Z,33.01
2018-07-07T11:01:22.132Z,33.83
2018-07-07T11:03:26.840Z,33.20
2018-07-07T11:05:40.795Z,33.68
2018-07-07T11:07:45.887Z,33.71
2018-07-07T11:09:50.633Z,33.48
2018-07-07T11:11:55.510Z,32.94
2018-07-07T11:14:00.880Z,33.21
2018-07-07T11:16:05.984Z,33.43
2018-07-07T11:18:10.869Z,33.40
2018-07-07T11:20:17.234Z,34.77
2018-07-07T11:22:25.183Z,34.74
2018-07-07T11:24:30.675Z,34.19
2018-07-07T11:26:36.203Z,33.90
2018-07-07T11:28:41.288Z,33.50
2018-07-07T11:30:46.277Z,33.73
2018-07-07T11:32:54.183Z,34.67
2018-07-07T11:34:59.115Z,35.25
2018-07-07T11:37:03.986Z,35.03
2018-07-07T11:39:09.938Z,34.59
2018-07-07T11:41:25.378Z,34.84
2018-07-07T11:43:32.144Z,34.51
2018-07-07T11:47:56.381Z,34.10
2018-07-07T11:52:18.131Z,35.58
2018-07-07T11:54:27.708Z,34.66
2018-07-07T11:56:32.585Z,34.68
2018-07-07T11:58:39.364Z,34.81
2018-07-07T12:00:44.466Z,34.85
2018-07-07T12:02:49.509Z,34.75
2018-07-07T12:04:54.392Z,34.31
2018-07-07T12:06:59.484Z,34.76
2018-07-07T12:09:05.289Z,34.83
2018-07-07T12:11:10.247Z,33.86
2018-07-07T12:13:15.066Z,34.39
2018-07-07T12:15:20.066Z,34.16
2018-07-07T12:17:24.783Z,34.37
2018-07-07T12:19:29.863Z,34.35
2018-07-07T12:21:34.765Z,34.13
2018-07-07T12:23:44.236Z,33.87
2018-07-07T12:25:49.527Z,32.90
2018-07-07T12:27:54.527Z,33.83
2018-07-07T12:29:59.292Z,33.63
2018-07-07T12:32:04.379Z,33.25
2018-07-07T12:34:09.427Z,33.14
2018-07-07T12:36:14.812Z,33.07
2018-07-07T12:38:19.994Z,33.57
2018-07-07T12:40:24.852Z,33.72
2018-07-07T12:42:29.901Z,32.86
2018-07-07T12:44:34.811Z,33.04
2018-07-07T12:46:39.593Z,32.17
2018-07-07T12:48:44.815Z,32.29
2018-07-07T12:50:51.455Z,32.26
2018-07-07T12:52:56.692Z,32.59
2018-07-07T12:55:02.519Z,32.53
2018-07-07T12:57:08.614Z,33.05
2018-07-07T12:59:13.941Z,32.59
2018-07-07T13:01:23.138Z,32.74
2018-07-07T13:03:28.287Z,33.00
2018-07-07T13:05:34.168Z,32.95
2018-07-07T13:07:39.331Z,32.98
2018-07-07T13:09:44.589Z,33.66
2018-07-07T13:11:50.000Z,33.02
2018-07-07T13:13:55.221Z,32.38
2018-07-07T13:16:00.584Z,32.72
2018-07-07T13:18:06.094Z,33.37
2018-07-07T13:20:14.529Z,32.57
2018-07-07T13:22:21.772Z,32.42
2018-07-07T13:26:40.291Z,32.88
2018-07-07T13:28:45.294Z,33.35
2018-07-07T13:30:50.300Z,33.22
2018-07-07T13:32:55.419Z,33.18
2018-07-07T13:35:00.426Z,32.64
2018-07-07T13:37:05.633Z,32.97
2018-07-07T13:39:13.955Z,33.65
2018-07-07T13:41:18.944Z,33.23
2018-07-07T13:43:25.031Z,32.47
2018-07-07T13:45:30.710Z,32.79
2018-07-07T13:47:37.068Z,32.05
2018-07-07T13:49:43.597Z,32.26
2018-07-07T13:51:48.587Z,32.03
2018-07-07T13:53:53.944Z,33.41
2018-07-07T13:55:59.001Z,31.77
2018-07-07T13:58:04.047Z,32.65
2018-07-07T14:00:11.414Z,32.21
2018-07-07T14:02:16.359Z,32.25
2018-07-07T14:04:21.162Z,32.46
2018-07-07T14:06:26.494Z,32.69
2018-07-07T14:08:32.851Z,33.16
2018-07-07T14:10:38.543Z,33.27
2018-07-07T14:12:43.861Z,33.40
2018-07-07T14:14:48.870Z,32.10
2018-07-07T14:16:54.007Z,31.95
2018-07-07T14:18:59.177Z,36.18
2018-07-07T14:21:04.231Z,35.36
2018-07-07T14:23:09.681Z,35.53
2018-07-07T14:25:14.773Z,36.23
2018-07-07T14:27:20.098Z,36.66
2018-07-07T14:29:25.090Z,35.92
2018-07-07T14:31:30.389Z,35.50
2018-07-07T14:33:35.448Z,35.26
2018-07-07T14:35:40.456Z,34.53
2018-07-07T14:37:45.984Z,33.67
2018-07-07T14:40:00.284Z,33.76
2018-07-07T14:42:45.175Z,33.76
2018-07-07T14:44:50.344Z,34.01
2018-07-07T14:46:55.393Z,33.23
2018-07-07T14:49:00.552Z,33.83
2018-07-07T14:51:09.181Z,32.75
2018-07-07T14:53:14.432Z,33.40
2018-07-07T14:55:21.727Z,33.99
2018-07-07T14:57:27.757Z,33.21
2018-07-07T14:59:33.640Z,32.85
2018-07-07T15:01:39.076Z,33.22
2018-07-07T15:03:44.536Z,33.35
2018-07-07T15:05:49.917Z,32.70
2018-07-07T15:07:55.145Z,32.72
2018-07-07T15:10:00.173Z,33.13
2018-07-07T15:12:05.452Z,32.50
2018-07-07T15:14:10.857Z,33.07
2018-07-07T15:16:16.879Z,33.54
2018-07-07T15:18:22.400Z,32.60
2018-07-07T15:20:28.893Z,33.43
2018-07-07T15:22:34.244Z,32.42
2018-07-07T15:24:39.511Z,32.93
2018-07-07T15:26:44.698Z,32.41
2018-07-07T15:28:49.857Z,32.91
2018-07-07T15:30:55.716Z,32.12
2018-07-07T15:33:04.116Z,32.26
2018-07-07T15:35:10.083Z,32.14
2018-07-07T15:37:15.334Z,31.94
2018-07-07T15:39:20.630Z,31.94
2018-07-07T15:41:26.309Z,31.63
2018-07-07T15:43:31.567Z,30.96
2018-07-07T15:45:37.313Z,31.53
2018-07-07T15:47:42.654Z,30.99
2018-07-07T15:49:47.871Z,31.90
2018-07-07T15:51:53.077Z,31.92
2018-07-07T15:53:58.727Z,32.98
2018-07-07T15:56:04.106Z,32.51
2018-07-07T15:58:09.539Z,32.15
2018-07-07T16:00:14.854Z,32.34
2018-07-07T16:02:20.302Z,32.84
2018-07-07T16:04:26.748Z,32.64
2018-07-07T16:06:32.102Z,32.39
2018-07-07T16:08:37.151Z,32.55
2018-07-07T16:10:42.467Z,31.12
2018-07-07T16:12:47.584Z,32.01
2018-07-07T16:14:53.524Z,31.66
2018-07-07T16:16:58.811Z,32.14
2018-07-07T16:19:03.956Z,31.82
2018-07-07T16:21:09.440Z,31.50
2018-07-07T16:23:15.516Z,32.02
2018-07-07T16:25:21.013Z,32.61
2018-07-07T16:27:26.099Z,32.21
2018-07-07T16:29:31.677Z,32.33
2018-07-07T16:31:37.347Z,31.93
2018-07-07T16:33:42.482Z,32.77
2018-07-07T16:35:48.188Z,32.21
2018-07-07T16:37:53.733Z,32.48
2018-07-07T16:39:58.873Z,32.05
2018-07-07T16:42:04.441Z,32.54
2018-07-07T16:44:09.847Z,32.95
2018-07-07T16:46:15.721Z,31.87
2018-07-07T16:48:21.210Z,30.81
2018-07-07T16:52:32.146Z,30.67
2018-07-07T16:54:38.215Z,31.41
2018-07-07T16:56:43.489Z,30.15
2018-07-07T16:58:49.050Z,30.32
2018-07-07T17:00:54.129Z,30.04
2018-07-07T17:03:00.120Z,30.14
2018-07-07T17:05:06.864Z,30.13
2018-07-07T17:07:14.782Z,31.05
2018-07-07T17:09:20.445Z,31.48
2018-07-07T17:11:26.233Z,32.34
2018-07-07T17:13:33.603Z,32.64
2018-07-07T17:15:40.450Z,31.60
2018-07-07T17:17:46.059Z,31.08
2018-07-07T17:19:52.121Z,31.77
2018-07-07T17:21:57.440Z,30.74
2018-07-07T17:24:03.221Z,30.19
2018-07-07T17:26:08.698Z,30.52
2018-07-07T17:28:14.500Z,30.67
2018-07-07T17:30:21.340Z,31.12
2018-07-07T17:32:26.544Z,30.81
2018-07-07T17:34:31.948Z,31.28
2018-07-07T17:36:37.317Z,32.03
2018-07-07T17:38:42.423Z,32.43
2018-07-07T17:40:47.779Z,33.06
2018-07-07T17:42:53.340Z,32.44
2018-07-07T17:44:59.652Z,33.74
2018-07-07T17:47:04.926Z,33.39
2018-07-07T17:49:10.328Z,32.59
2018-07-07T17:51:15.946Z,32.91
2018-07-07T17:53:22.250Z,33.46
2018-07-07T17:55:28.004Z,33.07
2018-07-07T17:57:33.486Z,32.92
2018-07-07T17:59:39.834Z,33.09
2018-07-07T18:01:45.430Z,32.71
2018-07-07T18:03:51.649Z,33.18
2018-07-07T18:05:56.969Z,33.51
2018-07-07T18:08:04.419Z,33.19
2018-07-07T18:10:10.866Z,32.45
2018-07-07T18:12:28.963Z,32.48
2018-07-07T18:14:35.117Z,31.83
2018-07-07T18:16:40.874Z,31.87
2018-07-07T18:18:47.799Z,31.83
2018-07-07T18:20:54.049Z,32.92
2018-07-07T18:22:59.742Z,33.09
2018-07-07T18:25:05.653Z,33.18
2018-07-07T18:27:11.198Z,33.05
2018-07-07T18:29:16.644Z,33.32
2018-07-07T18:31:22.663Z,33.56
2018-07-07T18:33:32.139Z,34.66
2018-07-07T18:35:40.499Z,34.66
2018-07-07T18:37:45.835Z,35.03
2018-07-07T18:39:50.914Z,34.92
2018-07-07T18:41:56.011Z,35.74
2018-07-07T18:44:04.992Z,35.67
2018-07-07T18:46:13.165Z,35.96
2018-07-07T18:48:19.627Z,35.77
2018-07-07T18:50:24.892Z,35.44
2018-07-07T18:52:31.349Z,36.29
2018-07-07T18:54:36.544Z,36.28
2018-07-07T18:56:44.016Z,36.45
2018-07-07T18:58:50.761Z,35.38
2018-07-07T19:00:56.185Z,35.90
2018-07-07T19:03:01.360Z,35.42
2018-07-07T19:05:06.716Z,34.89
2018-07-07T19:07:15.946Z,35.38
2018-07-07T19:09:21.406Z,34.95
2018-07-07T19:11:27.234Z,34.94
2018-07-07T19:13:32.914Z,35.21
2018-07-07T19:15:40.325Z,35.03
2018-07-07T19:17:46.416Z,34.83
2018-07-07T19:19:52.686Z,35.66
2018-07-07T19:22:03.249Z,36.41
2018-07-07T19:24:13.728Z,36.28
2018-07-07T19:26:23.971Z,37.54
2018-07-07T19:28:29.972Z,38.34
2018-07-07T19:30:35.365Z,38.54
2018-07-07T19:32:45.942Z,39.24
2018-07-07T19:34:56.184Z,39.23
2018-07-07T19:37:06.591Z,39.35
2018-07-07T19:39:11.878Z,40.66
2018-07-07T19:41:17.253Z,40.61
2018-07-07T19:43:23.782Z,40.07
2018-07-07T19:45:29.057Z,40.32
2018-07-07T19:47:36.565Z,40.88
2018-07-07T19:49:43.327Z,40.98
2018-07-07T19:51:48.319Z,41.27
2018-07-07T19:53:54.421Z,41.95
2018-07-07T19:56:00.444Z,42.49
2018-07-07T19:58:06.664Z,42.97
2018-07-07T20:00:12.049Z,43.13
2018-07-07T20:02:17.215Z,42.60
2018-07-07T20:04:22.668Z,43.63
2018-07-07T20:06:28.335Z,43.38
2018-07-07T20:08:34.066Z,44.06
2018-07-07T20:10:39.355Z,43.98
2018-07-07T20:12:46.470Z,44.35
2018-07-07T20:14:52.531Z,44.76
2018-07-07T20:17:08.288Z,44.65
2018-07-07T20:19:18.111Z,44.95
2018-07-07T20:21:45.093Z,46.06
2018-07-07T20:24:04.698Z,45.98
2018-07-07T20:26:10.001Z,46.08
2018-07-07T20:28:21.872Z,46.06
2018-07-07T20:30:29.180Z,47.13
2018-07-07T20:32:39.499Z,46.18
2018-07-07T20:34:46.473Z,46.19
2018-07-07T20:36:53.679Z,46.95
2018-07-07T20:38:59.005Z,47.38
2018-07-07T20:41:05.436Z,47.23
2018-07-07T20:43:12.298Z,46.88
2018-07-07T20:45:18.466Z,47.63
2018-07-07T20:47:24.391Z,47.15
2018-07-07T20:49:40.628Z,47.34
2018-07-07T20:51:46.034Z,48.24
2018-07-07T20:53:54.280Z,48.26
2018-07-07T20:55:59.368Z,48.34
2018-07-07T20:58:05.287Z,48.29
2018-07-07T21:00:13.177Z,48.18
2018-07-07T21:02:18.484Z,48.57
2018-07-07T21:04:23.568Z,47.81
2018-07-07T21:06:32.199Z,48.50
2018-07-07T21:08:39.262Z,48.72
2018-07-07T21:10:45.079Z,48.23
2018-07-07T21:12:50.538Z,48.33
2018-07-07T21:14:56.947Z,48.51
2018-07-07T21:17:02.476Z,49.06
2018-07-07T21:19:07.722Z,49.43
2018-07-07T21:21:12.775Z,49.48
2018-07-07T21:23:17.958Z,49.72
2018-07-07T21:25:23.105Z,49.02
2018-07-07T21:27:28.587Z,48.69
2018-07-07T21:29:34.686Z,49.03
2018-07-07T21:31:39.856Z,49.75
2018-07-07T21:33:45.466Z,50.30
2018-07-07T21:35:52.057Z,49.90
2018-07-07T21:37:58.488Z,50.16
2018-07-07T21:40:03.765Z,49.82
2018-07-07T21:42:09.015Z,50.27
2018-07-07T21:44:14.494Z,50.80
2018-07-07T21:46:19.690Z,50.52
2018-07-07T21:48:24.928Z,49.97
2018-07-07T21:50:29.916Z,50.49
2018-07-07T21:52:35.188Z,50.36
2018-07-07T21:54:40.430Z,50.20
2018-07-07T21:56:45.486Z,50.86
2018-07-07T21:58:54.486Z,51.24
2018-07-07T22:01:15.757Z,51.96
2018-07-07T22:03:25.822Z,52.62
2018-07-07T22:05:32.281Z,52.02
2018-07-07T22:07:42.186Z,52.68
2018-07-07T22:09:47.084Z,52.67
2018-07-07T22:11:52.229Z,52.70
2018-07-07T22:13:57.260Z,53.29
2018-07-07T22:16:02.355Z,53.17
2018-07-07T22:18:07.593Z,54.04
2018-07-07T22:20:12.619Z,54.05
2018-07-07T22:22:18.991Z,53.80
2018-07-07T22:24:24.454Z,54.52
2018-07-07T22:26:30.363Z,55.00
2018-07-07T22:28:36.285Z,55.47
2018-07-07T22:30:42.604Z,55.64
2018-07-07T22:32:47.780Z,55.14
2018-07-07T22:34:53.182Z,55.97
2018-07-07T22:36:58.383Z,56.37
2018-07-07T22:39:03.791Z,55.92
2018-07-07T22:41:09.459Z,56.18
2018-07-07T22:43:14.942Z,56.38
2018-07-07T22:45:20.226Z,55.96
2018-07-07T22:47:25.777Z,55.87
2018-07-07T22:49:32.153Z,56.37
2018-07-07T22:51:38.235Z,57.04
2018-07-07T22:53:44.323Z,56.98
2018-07-07T22:55:49.620Z,57.07
2018-07-07T22:57:54.573Z,57.57
2018-07-07T22:59:59.602Z,57.53
2018-07-07T23:02:04.694Z,57.69
2018-07-07T23:04:09.885Z,58.10
2018-07-07T23:06:14.869Z,58.02
2018-07-07T23:08:20.312Z,58.13
2018-07-07T23:10:25.791Z,58.48
2018-07-07T23:12:30.990Z,58.43
2018-07-07T23:14:36.385Z,58.63
2018-07-07T23:16:41.379Z,58.68
2018-07-07T23:18:46.410Z,58.96
2018-07-07T23:20:51.904Z,59.02
2018-07-07T23:22:57.093Z,59.41
2018-07-07T23:25:02.391Z,58.95
2018-07-07T23:27:07.684Z,58.64
2018-07-07T23:29:12.547Z,59.36
2018-07-07T23:31:17.579Z,59.24
2018-07-07T23:33:22.533Z,59.07
2018-07-07T23:35:27.421Z,59.59
2018-07-07T23:37:32.303Z,59.42
2018-07-07T23:39:44.467Z,59.87
2018-07-07T23:41:49.801Z,59.21
2018-07-07T23:43:54.892Z,60.39
2018-07-07T23:46:00.073Z,60.39
2018-07-07T23:48:05.276Z,60.37
2018-07-07T23:50:10.604Z,60.23
2018-07-07T23:52:15.717Z,60.85
2018-07-07T23:54:20.957Z,60.99
2018-07-07T23:56:27.313Z,60.84
2018-07-07T23:58:32.490Z,60.71
